sensor_id;sensor_type;location;lat;lon;timestamp;P1;durP1;ratioP1;P2;durP2;ratioP2
38037;SDS011;23843;51.320;12.340;2023-08-12T00:02:08;0.40;;;0.40;;
38037;SDS011;23843;51.320;12.340;2023-08-12T00:04:33;0.77;;;0.77;;
38037;SDS011;23843;51.320;12.340;2023-08-12T00:06:59;0.50;;;0.50;;
38037;SDS011;23843;51.320;12.340;2023-08-12T00:09:24;2.05;;;0.43;;
38037;SDS011;23843;51.320;12.340;2023-08-12T00:11:50;0.73;;;0.52;;
38037;SDS011;23843;51.320;12.340;2023-08-12T00:14:15;0.80;;;0.80;;
38037;SDS011;23843;51.320;12.340;2023-08-12T00:16:40;0.90;;;0.52;;
38037;SDS011;23843;51.320;12.340;2023-08-12T00:19:07;0.98;;;0.60;;
38037;SDS011;23843;51.320;12.340;2023-08-12T00:21:33;1.17;;;1.08;;
38037;SDS011;23843;51.320;12.340;2023-08-12T00:23:58;1.10;;;1.00;;
38037;SDS011;23843;51.320;12.340;2023-08-12T00:26:24;0.90;;;0.85;;
38037;SDS011;23843;51.320;12.340;2023-08-12T00:28:49;0.98;;;0.85;;
38037;SDS011;23843;51.320;12.340;2023-08-12T00:31:15;1.10;;;0.93;;
38037;SDS011;23843;51.320;12.340;2023-08-12T00:33:40;1.10;;;1.00;;
38037;SDS011;23843;51.320;12.340;2023-08-12T00:36:07;0.98;;;0.88;;
38037;SDS011;23843;51.320;12.340;2023-08-12T00:38:32;1.30;;;0.90;;
38037;SDS011;23843;51.320;12.340;2023-08-12T00:40:58;1.10;;;1.00;;
38037;SDS011;23843;51.320;12.340;2023-08-12T00:43:23;0.98;;;0.88;;
38037;SDS011;23843;51.320;12.340;2023-08-12T00:45:49;0.90;;;0.90;;
38037;SDS011;23843;51.320;12.340;2023-08-12T00:48:15;0.80;;;0.77;;
38037;SDS011;23843;51.320;12.340;2023-08-12T00:50:42;0.80;;;0.80;;
38037;SDS011;23843;51.320;12.340;2023-08-12T00:53:09;1.08;;;1.00;;
38037;SDS011;23843;51.320;12.340;2023-08-12T00:55:36;0.85;;;0.77;;
38037;SDS011;23843;51.320;12.340;2023-08-12T00:58:01;0.95;;;0.80;;
38037;SDS011;23843;51.320;12.340;2023-08-12T01:00:28;1.10;;;1.00;;
38037;SDS011;23843;51.320;12.340;2023-08-12T01:02:54;1.52;;;1.23;;
38037;SDS011;23843;51.320;12.340;2023-08-12T01:05:21;1.20;;;1.10;;
38037;SDS011;23843;51.320;12.340;2023-08-12T01:07:47;1.10;;;1.00;;
38037;SDS011;23843;51.320;12.340;2023-08-12T01:10:14;1.13;;;1.02;;
38037;SDS011;23843;51.320;12.340;2023-08-12T01:12:41;1.30;;;1.20;;
38037;SDS011;23843;51.320;12.340;2023-08-12T01:15:13;2.05;;;1.40;;
38037;SDS011;23843;51.320;12.340;2023-08-12T01:17:42;1.83;;;1.30;;
38037;SDS011;23843;51.320;12.340;2023-08-12T01:20:09;1.27;;;1.10;;
38037;SDS011;23843;51.320;12.340;2023-08-12T01:22:37;1.65;;;1.35;;
38037;SDS011;23843;51.320;12.340;2023-08-12T01:25:04;1.77;;;1.55;;
38037;SDS011;23843;51.320;12.340;2023-08-12T01:27:30;1.80;;;1.40;;
38037;SDS011;23843;51.320;12.340;2023-08-12T01:29:56;1.00;;;0.90;;
38037;SDS011;23843;51.320;12.340;2023-08-12T01:32:23;1.08;;;1.00;;
38037;SDS011;23843;51.320;12.340;2023-08-12T01:34:55;0.80;;;0.80;;
38037;SDS011;23843;51.320;12.340;2023-08-12T01:37:32;1.30;;;1.20;;
38037;SDS011;23843;51.320;12.340;2023-08-12T01:39:59;1.13;;;1.02;;
38037;SDS011;23843;51.320;12.340;2023-08-12T01:42:27;0.70;;;0.70;;
38037;SDS011;23843;51.320;12.340;2023-08-12T01:44:54;0.63;;;0.63;;
38037;SDS011;23843;51.320;12.340;2023-08-12T01:47:19;1.23;;;1.08;;
38037;SDS011;23843;51.320;12.340;2023-08-12T01:49:45;1.50;;;1.25;;
38037;SDS011;23843;51.320;12.340;2023-08-12T01:52:10;1.15;;;0.98;;
38037;SDS011;23843;51.320;12.340;2023-08-12T01:54:36;1.30;;;1.17;;
38037;SDS011;23843;51.320;12.340;2023-08-12T01:57:02;1.15;;;1.00;;
38037;SDS011;23843;51.320;12.340;2023-08-12T01:59:30;1.27;;;1.10;;
38037;SDS011;23843;51.320;12.340;2023-08-12T02:01:56;1.33;;;1.20;;
38037;SDS011;23843;51.320;12.340;2023-08-12T02:04:21;2.58;;;1.67;;
38037;SDS011;23843;51.320;12.340;2023-08-12T02:06:46;1.65;;;1.30;;
38037;SDS011;23843;51.320;12.340;2023-08-12T02:09:12;1.50;;;1.30;;
38037;SDS011;23843;51.320;12.340;2023-08-12T02:11:37;1.08;;;1.00;;
38037;SDS011;23843;51.320;12.340;2023-08-12T02:14:03;1.25;;;1.05;;
38037;SDS011;23843;51.320;12.340;2023-08-12T02:16:30;1.50;;;1.40;;
38037;SDS011;23843;51.320;12.340;2023-08-12T02:18:55;2.35;;;1.38;;
38037;SDS011;23843;51.320;12.340;2023-08-12T02:21:21;1.20;;;1.10;;
38037;SDS011;23843;51.320;12.340;2023-08-12T02:23:46;1.60;;;1.45;;
38037;SDS011;23843;51.320;12.340;2023-08-12T02:26:12;0.90;;;0.90;;
38037;SDS011;23843;51.320;12.340;2023-08-12T02:28:37;1.25;;;1.08;;
38037;SDS011;23843;51.320;12.340;2023-08-12T02:31:03;0.80;;;0.80;;
38037;SDS011;23843;51.320;12.340;2023-08-12T02:33:29;0.75;;;0.70;;
38037;SDS011;23843;51.320;12.340;2023-08-12T02:35:55;1.30;;;1.20;;
38037;SDS011;23843;51.320;12.340;2023-08-12T02:38:20;1.20;;;1.10;;
38037;SDS011;23843;51.320;12.340;2023-08-12T02:40:47;2.80;;;1.20;;
38037;SDS011;23843;51.320;12.340;2023-08-12T02:43:13;1.63;;;1.25;;
38037;SDS011;23843;51.320;12.340;2023-08-12T02:45:38;1.90;;;1.60;;
38037;SDS011;23843;51.320;12.340;2023-08-12T02:48:04;1.75;;;1.55;;
38037;SDS011;23843;51.320;12.340;2023-08-12T02:50:31;3.08;;;1.88;;
38037;SDS011;23843;51.320;12.340;2023-08-12T02:52:57;2.30;;;1.63;;
38037;SDS011;23843;51.320;12.340;2023-08-12T02:55:22;2.05;;;1.70;;
38037;SDS011;23843;51.320;12.340;2023-08-12T02:57:48;2.00;;;1.70;;
38037;SDS011;23843;51.320;12.340;2023-08-12T03:00:13;2.25;;;1.92;;
38037;SDS011;23843;51.320;12.340;2023-08-12T03:02:41;1.80;;;1.70;;
38037;SDS011;23843;51.320;12.340;2023-08-12T03:05:07;2.38;;;2.17;;
38037;SDS011;23843;51.320;12.340;2023-08-12T03:07:34;2.38;;;1.90;;
38037;SDS011;23843;51.320;12.340;2023-08-12T03:10:00;2.05;;;1.80;;
38037;SDS011;23843;51.320;12.340;2023-08-12T03:12:25;2.40;;;1.77;;
38037;SDS011;23843;51.320;12.340;2023-08-12T03:14:51;1.70;;;1.60;;
38037;SDS011;23843;51.320;12.340;2023-08-12T03:17:16;3.08;;;2.10;;
38037;SDS011;23843;51.320;12.340;2023-08-12T03:19:42;3.28;;;2.33;;
38037;SDS011;23843;51.320;12.340;2023-08-12T03:22:07;2.30;;;2.10;;
38037;SDS011;23843;51.320;12.340;2023-08-12T03:24:34;2.00;;;1.90;;
38037;SDS011;23843;51.320;12.340;2023-08-12T03:26:59;2.65;;;2.45;;
38037;SDS011;23843;51.320;12.340;2023-08-12T03:29:25;2.65;;;2.10;;
38037;SDS011;23843;51.320;12.340;2023-08-12T03:31:50;2.47;;;2.20;;
38037;SDS011;23843;51.320;12.340;2023-08-12T03:34:16;3.05;;;2.75;;
38037;SDS011;23843;51.320;12.340;2023-08-12T03:36:41;4.85;;;2.65;;
38037;SDS011;23843;51.320;12.340;2023-08-12T03:39:07;3.28;;;2.80;;
38037;SDS011;23843;51.320;12.340;2023-08-12T03:41:34;2.50;;;2.30;;
38037;SDS011;23843;51.320;12.340;2023-08-12T03:43:59;2.47;;;2.25;;
38037;SDS011;23843;51.320;12.340;2023-08-12T03:46:24;5.63;;;2.60;;
38037;SDS011;23843;51.320;12.340;2023-08-12T03:48:50;2.70;;;2.42;;
38037;SDS011;23843;51.320;12.340;2023-08-12T03:51:15;3.45;;;2.58;;
38037;SDS011;23843;51.320;12.340;2023-08-12T03:53:41;3.47;;;2.90;;
38037;SDS011;23843;51.320;12.340;2023-08-12T03:56:06;3.40;;;3.10;;
38037;SDS011;23843;51.320;12.340;2023-08-12T03:58:33;3.63;;;3.00;;
38037;SDS011;23843;51.320;12.340;2023-08-12T04:00:59;2.97;;;2.67;;
38037;SDS011;23843;51.320;12.340;2023-08-12T04:03:24;4.03;;;2.70;;
38037;SDS011;23843;51.320;12.340;2023-08-12T04:05:49;5.35;;;2.83;;
38037;SDS011;23843;51.320;12.340;2023-08-12T04:08:15;2.72;;;2.30;;
38037;SDS011;23843;51.320;12.340;2023-08-12T04:10:43;2.40;;;2.20;;
38037;SDS011;23843;51.320;12.340;2023-08-12T04:13:10;4.65;;;2.92;;
38037;SDS011;23843;51.320;12.340;2023-08-12T04:15:37;3.03;;;2.72;;
38037;SDS011;23843;51.320;12.340;2023-08-12T04:18:02;3.42;;;2.90;;
38037;SDS011;23843;51.320;12.340;2023-08-12T04:20:28;3.55;;;3.15;;
38037;SDS011;23843;51.320;12.340;2023-08-12T04:22:54;2.70;;;2.50;;
38037;SDS011;23843;51.320;12.340;2023-08-12T04:25:19;3.58;;;2.90;;
38037;SDS011;23843;51.320;12.340;2023-08-12T04:27:45;3.10;;;2.80;;
38037;SDS011;23843;51.320;12.340;2023-08-12T04:30:10;3.85;;;2.80;;
38037;SDS011;23843;51.320;12.340;2023-08-12T04:32:37;3.47;;;3.17;;
38037;SDS011;23843;51.320;12.340;2023-08-12T04:35:03;3.28;;;2.53;;
38037;SDS011;23843;51.320;12.340;2023-08-12T04:37:29;2.95;;;2.45;;
38037;SDS011;23843;51.320;12.340;2023-08-12T04:39:54;3.13;;;2.83;;
38037;SDS011;23843;51.320;12.340;2023-08-12T04:42:20;2.40;;;2.20;;
38037;SDS011;23843;51.320;12.340;2023-08-12T04:44:45;4.00;;;2.63;;
38037;SDS011;23843;51.320;12.340;2023-08-12T04:47:11;4.55;;;3.05;;
38037;SDS011;23843;51.320;12.340;2023-08-12T04:49:38;2.85;;;2.47;;
38037;SDS011;23843;51.320;12.340;2023-08-12T04:52:03;2.75;;;2.50;;
38037;SDS011;23843;51.320;12.340;2023-08-12T04:54:29;2.05;;;1.88;;
38037;SDS011;23843;51.320;12.340;2023-08-12T04:56:55;2.70;;;2.50;;
38037;SDS011;23843;51.320;12.340;2023-08-12T04:59:20;2.38;;;2.17;;
38037;SDS011;23843;51.320;12.340;2023-08-12T05:01:46;2.92;;;2.10;;
38037;SDS011;23843;51.320;12.340;2023-08-12T05:04:11;2.88;;;2.38;;
38037;SDS011;23843;51.320;12.340;2023-08-12T05:06:38;2.08;;;1.88;;
38037;SDS011;23843;51.320;12.340;2023-08-12T05:09:03;2.28;;;2.08;;
38037;SDS011;23843;51.320;12.340;2023-08-12T05:11:29;3.75;;;1.63;;
38037;SDS011;23843;51.320;12.340;2023-08-12T05:13:55;2.60;;;1.65;;
38037;SDS011;23843;51.320;12.340;2023-08-12T05:16:20;2.15;;;1.95;;
38037;SDS011;23843;51.320;12.340;2023-08-12T05:18:45;2.00;;;1.80;;
38037;SDS011;23843;51.320;12.340;2023-08-12T05:21:11;3.28;;;2.40;;
38037;SDS011;23843;51.320;12.340;2023-08-12T05:23:38;2.40;;;2.20;;
38037;SDS011;23843;51.320;12.340;2023-08-12T05:26:03;2.40;;;2.10;;
38037;SDS011;23843;51.320;12.340;2023-08-12T05:28:29;2.17;;;1.70;;
38037;SDS011;23843;51.320;12.340;2023-08-12T05:30:54;1.60;;;1.50;;
38037;SDS011;23843;51.320;12.340;2023-08-12T05:33:19;1.60;;;1.50;;
38037;SDS011;23843;51.320;12.340;2023-08-12T05:35:46;1.30;;;1.20;;
38037;SDS011;23843;51.320;12.340;2023-08-12T05:38:12;1.60;;;1.48;;
38037;SDS011;23843;51.320;12.340;2023-08-12T05:40:39;1.83;;;1.73;;
38037;SDS011;23843;51.320;12.340;2023-08-12T05:43:06;2.63;;;1.83;;
38037;SDS011;23843;51.320;12.340;2023-08-12T05:45:31;1.73;;;1.63;;
38037;SDS011;23843;51.320;12.340;2023-08-12T05:47:56;1.85;;;1.75;;
38037;SDS011;23843;51.320;12.340;2023-08-12T05:50:22;2.13;;;1.88;;
38037;SDS011;23843;51.320;12.340;2023-08-12T05:52:48;1.70;;;1.60;;
38037;SDS011;23843;51.320;12.340;2023-08-12T05:55:13;2.20;;;2.00;;
38037;SDS011;23843;51.320;12.340;2023-08-12T05:57:40;2.47;;;2.28;;
38037;SDS011;23843;51.320;12.340;2023-08-12T06:00:06;2.83;;;2.22;;
38037;SDS011;23843;51.320;12.340;2023-08-12T06:02:32;2.83;;;2.60;;
38037;SDS011;23843;51.320;12.340;2023-08-12T06:04:57;1.80;;;1.70;;
38037;SDS011;23843;51.320;12.340;2023-08-12T06:07:23;1.80;;;1.70;;
38037;SDS011;23843;51.320;12.340;2023-08-12T06:09:48;1.60;;;1.50;;
38037;SDS011;23843;51.320;12.340;2023-08-12T06:12:14;2.22;;;2.00;;
38037;SDS011;23843;51.320;12.340;2023-08-12T06:14:41;1.80;;;1.67;;
38037;SDS011;23843;51.320;12.340;2023-08-12T06:17:07;1.60;;;1.50;;
38037;SDS011;23843;51.320;12.340;2023-08-12T06:19:33;2.20;;;1.75;;
38037;SDS011;23843;51.320;12.340;2023-08-12T06:21:59;2.40;;;2.15;;
38037;SDS011;23843;51.320;12.340;2023-08-12T06:24:24;1.70;;;1.60;;
38037;SDS011;23843;51.320;12.340;2023-08-12T06:26:50;2.75;;;2.55;;
38037;SDS011;23843;51.320;12.340;2023-08-12T06:29:15;1.60;;;1.50;;
38037;SDS011;23843;51.320;12.340;2023-08-12T06:31:42;1.95;;;1.85;;
38037;SDS011;23843;51.320;12.340;2023-08-12T06:34:08;1.90;;;1.80;;
38037;SDS011;23843;51.320;12.340;2023-08-12T06:36:48;2.50;;;2.30;;
38037;SDS011;23843;51.320;12.340;2023-08-12T06:39:13;1.75;;;1.60;;
38037;SDS011;23843;51.320;12.340;2023-08-12T06:41:39;2.17;;;2.00;;
38037;SDS011;23843;51.320;12.340;2023-08-12T06:44:04;2.85;;;1.83;;
38037;SDS011;23843;51.320;12.340;2023-08-12T06:46:31;2.45;;;2.05;;
38037;SDS011;23843;51.320;12.340;2023-08-12T06:48:58;2.40;;;2.10;;
38037;SDS011;23843;51.320;12.340;2023-08-12T06:51:24;2.42;;;1.92;;
38037;SDS011;23843;51.320;12.340;2023-08-12T06:53:49;2.00;;;1.80;;
38037;SDS011;23843;51.320;12.340;2023-08-12T06:56:15;1.70;;;1.60;;
38037;SDS011;23843;51.320;12.340;2023-08-12T06:58:40;1.60;;;1.50;;
38037;SDS011;23843;51.320;12.340;2023-08-12T07:01:06;1.60;;;1.50;;
38037;SDS011;23843;51.320;12.340;2023-08-12T07:03:31;1.83;;;1.70;;
38037;SDS011;23843;51.320;12.340;2023-08-12T07:05:58;1.40;;;1.30;;
38037;SDS011;23843;51.320;12.340;2023-08-12T07:08:23;1.33;;;1.23;;
38037;SDS011;23843;51.320;12.340;2023-08-12T07:10:49;1.40;;;1.30;;
38037;SDS011;23843;51.320;12.340;2023-08-12T07:13:14;3.33;;;1.30;;
38037;SDS011;23843;51.320;12.340;2023-08-12T07:15:40;1.30;;;1.20;;
38037;SDS011;23843;51.320;12.340;2023-08-12T07:18:05;1.20;;;1.10;;
38037;SDS011;23843;51.320;12.340;2023-08-12T07:20:31;1.75;;;1.65;;
38037;SDS011;23843;51.320;12.340;2023-08-12T07:22:58;1.50;;;1.40;;
38037;SDS011;23843;51.320;12.340;2023-08-12T07:25:23;2.10;;;1.90;;
38037;SDS011;23843;51.320;12.340;2023-08-12T07:27:49;1.70;;;1.60;;
38037;SDS011;23843;51.320;12.340;2023-08-12T07:30:14;1.42;;;1.33;;
38037;SDS011;23843;51.320;12.340;2023-08-12T07:32:40;1.38;;;1.27;;
38037;SDS011;23843;51.320;12.340;2023-08-12T07:35:05;1.23;;;1.00;;
38037;SDS011;23843;51.320;12.340;2023-08-12T07:37:31;1.48;;;1.38;;
38037;SDS011;23843;51.320;12.340;2023-08-12T07:39:58;1.30;;;1.20;;
38037;SDS011;23843;51.320;12.340;2023-08-12T07:42:24;1.70;;;1.60;;
38037;SDS011;23843;51.320;12.340;2023-08-12T07:44:49;2.13;;;1.65;;
38037;SDS011;23843;51.320;12.340;2023-08-12T07:47:15;2.00;;;1.90;;
38037;SDS011;23843;51.320;12.340;2023-08-12T07:49:40;2.35;;;2.15;;
38037;SDS011;23843;51.320;12.340;2023-08-12T07:52:06;3.00;;;2.80;;
38037;SDS011;23843;51.320;12.340;2023-08-12T07:54:32;1.80;;;1.70;;
38037;SDS011;23843;51.320;12.340;2023-08-12T07:56:59;2.40;;;2.20;;
38037;SDS011;23843;51.320;12.340;2023-08-12T07:59:24;2.33;;;2.13;;
38037;SDS011;23843;51.320;12.340;2023-08-12T08:01:50;1.85;;;1.45;;
38037;SDS011;23843;51.320;12.340;2023-08-12T08:04:15;1.60;;;1.50;;
38037;SDS011;23843;51.320;12.340;2023-08-12T08:06:41;2.90;;;1.60;;
38037;SDS011;23843;51.320;12.340;2023-08-12T08:09:06;1.50;;;1.40;;
38037;SDS011;23843;51.320;12.340;2023-08-12T08:11:32;1.95;;;1.75;;
38037;SDS011;23843;51.320;12.340;2023-08-12T08:13:58;1.23;;;1.13;;
38037;SDS011;23843;51.320;12.340;2023-08-12T08:16:24;3.05;;;1.40;;
38037;SDS011;23843;51.320;12.340;2023-08-12T08:18:49;1.35;;;1.25;;
38037;SDS011;23843;51.320;12.340;2023-08-12T08:21:15;1.75;;;1.50;;
38037;SDS011;23843;51.320;12.340;2023-08-12T08:23:41;1.48;;;1.38;;
38037;SDS011;23843;51.320;12.340;2023-08-12T08:26:07;1.92;;;1.80;;
38037;SDS011;23843;51.320;12.340;2023-08-12T08:28:33;1.75;;;1.60;;
38037;SDS011;23843;51.320;12.340;2023-08-12T08:31:00;1.58;;;1.48;;
38037;SDS011;23843;51.320;12.340;2023-08-12T08:33:26;1.40;;;1.30;;
38037;SDS011;23843;51.320;12.340;2023-08-12T08:35:51;1.30;;;1.20;;
38037;SDS011;23843;51.320;12.340;2023-08-12T08:38:17;1.70;;;1.60;;
38037;SDS011;23843;51.320;12.340;2023-08-12T08:40:43;1.23;;;1.10;;
38037;SDS011;23843;51.320;12.340;2023-08-12T08:43:08;1.40;;;1.30;;
38037;SDS011;23843;51.320;12.340;2023-08-12T08:45:34;1.35;;;1.23;;
38037;SDS011;23843;51.320;12.340;2023-08-12T08:48:02;1.30;;;1.20;;
38037;SDS011;23843;51.320;12.340;2023-08-12T08:50:28;1.50;;;1.40;;
38037;SDS011;23843;51.320;12.340;2023-08-12T08:52:54;1.30;;;1.20;;
38037;SDS011;23843;51.320;12.340;2023-08-12T08:55:21;1.27;;;1.00;;
38037;SDS011;23843;51.320;12.340;2023-08-12T08:57:47;1.42;;;1.33;;
38037;SDS011;23843;51.320;12.340;2023-08-12T09:00:13;1.63;;;1.52;;
38037;SDS011;23843;51.320;12.340;2023-08-12T09:02:38;1.35;;;1.20;;
38037;SDS011;23843;51.320;12.340;2023-08-12T09:05:07;1.60;;;1.50;;
38037;SDS011;23843;51.320;12.340;2023-08-12T09:07:34;1.95;;;1.85;;
38037;SDS011;23843;51.320;12.340;2023-08-12T09:10:00;1.38;;;1.27;;
38037;SDS011;23843;51.320;12.340;2023-08-12T09:12:27;1.38;;;1.27;;
38037;SDS011;23843;51.320;12.340;2023-08-12T09:14:53;1.20;;;1.10;;
38037;SDS011;23843;51.320;12.340;2023-08-12T09:17:18;1.60;;;1.50;;
38037;SDS011;23843;51.320;12.340;2023-08-12T09:19:43;1.38;;;1.20;;
38037;SDS011;23843;51.320;12.340;2023-08-12T09:22:10;1.65;;;1.17;;
38037;SDS011;23843;51.320;12.340;2023-08-12T09:24:37;1.50;;;1.40;;
38037;SDS011;23843;51.320;12.340;2023-08-12T09:27:02;1.48;;;1.30;;
38037;SDS011;23843;51.320;12.340;2023-08-12T09:29:29;1.00;;;1.00;;
38037;SDS011;23843;51.320;12.340;2023-08-12T09:31:55;0.73;;;0.73;;
38037;SDS011;23843;51.320;12.340;2023-08-12T09:34:30;0.82;;;0.82;;
38037;SDS011;23843;51.320;12.340;2023-08-12T09:36:56;0.60;;;0.60;;
38037;SDS011;23843;51.320;12.340;2023-08-12T09:39:23;0.47;;;0.47;;
38037;SDS011;23843;51.320;12.340;2023-08-12T09:41:48;0.40;;;0.40;;
38037;SDS011;23843;51.320;12.340;2023-08-12T09:44:14;0.70;;;0.70;;
38037;SDS011;23843;51.320;12.340;2023-08-12T09:46:40;1.00;;;0.90;;
38037;SDS011;23843;51.320;12.340;2023-08-12T09:49:06;0.80;;;0.70;;
38037;SDS011;23843;51.320;12.340;2023-08-12T09:51:33;0.80;;;0.80;;
38037;SDS011;23843;51.320;12.340;2023-08-12T09:54:00;1.00;;;1.00;;
38037;SDS011;23843;51.320;12.340;2023-08-12T09:56:27;0.85;;;0.85;;
38037;SDS011;23843;51.320;12.340;2023-08-12T09:58:58;0.63;;;0.63;;
38037;SDS011;23843;51.320;12.340;2023-08-12T10:01:25;0.70;;;0.70;;
38037;SDS011;23843;51.320;12.340;2023-08-12T10:03:51;1.05;;;0.90;;
38037;SDS011;23843;51.320;12.340;2023-08-12T10:06:18;0.80;;;0.80;;
38037;SDS011;23843;51.320;12.340;2023-08-12T10:08:45;0.70;;;0.70;;
38037;SDS011;23843;51.320;12.340;2023-08-12T10:11:11;0.80;;;0.80;;
38037;SDS011;23843;51.320;12.340;2023-08-12T10:13:38;0.80;;;0.80;;
38037;SDS011;23843;51.320;12.340;2023-08-12T10:16:12;1.58;;;0.90;;
38037;SDS011;23843;51.320;12.340;2023-08-12T10:18:42;0.93;;;0.93;;
38037;SDS011;23843;51.320;12.340;2023-08-12T10:21:10;1.95;;;1.75;;
38037;SDS011;23843;51.320;12.340;2023-08-12T10:23:35;2.40;;;2.20;;
38037;SDS011;23843;51.320;12.340;2023-08-12T10:26:01;1.52;;;1.42;;
38037;SDS011;23843;51.320;12.340;2023-08-12T10:28:29;0.98;;;0.98;;
38037;SDS011;23843;51.320;12.340;2023-08-12T10:30:56;1.33;;;0.98;;
38037;SDS011;23843;51.320;12.340;2023-08-12T10:33:22;1.50;;;1.40;;
38037;SDS011;23843;51.320;12.340;2023-08-12T10:35:48;0.90;;;0.90;;
38037;SDS011;23843;51.320;12.340;2023-08-12T10:38:16;1.30;;;1.20;;
38037;SDS011;23843;51.320;12.340;2023-08-12T10:40:43;0.70;;;0.70;;
38037;SDS011;23843;51.320;12.340;2023-08-12T10:43:08;0.75;;;0.75;;
38037;SDS011;23843;51.320;12.340;2023-08-12T10:45:42;1.52;;;1.42;;
38037;SDS011;23843;51.320;12.340;2023-08-12T10:48:16;0.80;;;0.80;;
38037;SDS011;23843;51.320;12.340;2023-08-12T10:50:43;0.70;;;0.70;;
38037;SDS011;23843;51.320;12.340;2023-08-12T10:53:20;0.70;;;0.70;;
38037;SDS011;23843;51.320;12.340;2023-08-12T10:55:48;1.08;;;1.00;;
38037;SDS011;23843;51.320;12.340;2023-08-12T10:58:15;0.88;;;0.88;;
38037;SDS011;23843;51.320;12.340;2023-08-12T11:00:51;0.98;;;0.93;;
38037;SDS011;23843;51.320;12.340;2023-08-12T11:03:20;0.80;;;0.80;;
38037;SDS011;23843;51.320;12.340;2023-08-12T11:05:45;1.00;;;1.00;;
38037;SDS011;23843;51.320;12.340;2023-08-12T11:08:11;2.25;;;1.80;;
38037;SDS011;23843;51.320;12.340;2023-08-12T11:10:38;2.10;;;1.90;;
38037;SDS011;23843;51.320;12.340;2023-08-12T11:13:04;2.03;;;1.90;;
38037;SDS011;23843;51.320;12.340;2023-08-12T11:15:30;2.35;;;2.15;;
38037;SDS011;23843;51.320;12.340;2023-08-12T11:17:56;2.20;;;2.00;;
38037;SDS011;23843;51.320;12.340;2023-08-12T11:20:23;2.38;;;2.17;;
38037;SDS011;23843;51.320;12.340;2023-08-12T11:22:49;2.10;;;2.00;;
38037;SDS011;23843;51.320;12.340;2023-08-12T11:25:16;2.60;;;2.40;;
38037;SDS011;23843;51.320;12.340;2023-08-12T11:27:42;2.40;;;2.20;;
38037;SDS011;23843;51.320;12.340;2023-08-12T11:30:09;2.60;;;2.13;;
38037;SDS011;23843;51.320;12.340;2023-08-12T11:32:35;2.00;;;1.90;;
38037;SDS011;23843;51.320;12.340;2023-08-12T11:35:01;2.30;;;2.10;;
38037;SDS011;23843;51.320;12.340;2023-08-12T11:37:29;2.25;;;2.13;;
38037;SDS011;23843;51.320;12.340;2023-08-12T11:39:55;2.58;;;2.22;;
38037;SDS011;23843;51.320;12.340;2023-08-12T11:42:29;2.55;;;2.35;;
38037;SDS011;23843;51.320;12.340;2023-08-12T11:44:55;2.50;;;2.30;;
38037;SDS011;23843;51.320;12.340;2023-08-12T11:47:24;2.50;;;2.30;;
38037;SDS011;23843;51.320;12.340;2023-08-12T11:49:49;2.30;;;2.10;;
38037;SDS011;23843;51.320;12.340;2023-08-12T11:52:16;2.58;;;2.38;;
38037;SDS011;23843;51.320;12.340;2023-08-12T11:54:43;2.60;;;2.35;;
38037;SDS011;23843;51.320;12.340;2023-08-12T11:57:09;2.03;;;1.88;;
38037;SDS011;23843;51.320;12.340;2023-08-12T11:59:35;2.20;;;1.98;;
38037;SDS011;23843;51.320;12.340;2023-08-12T12:02:01;1.70;;;1.60;;
38037;SDS011;23843;51.320;12.340;2023-08-12T12:04:27;2.42;;;1.90;;
38037;SDS011;23843;51.320;12.340;2023-08-12T12:06:55;2.20;;;2.00;;
38037;SDS011;23843;51.320;12.340;2023-08-12T12:09:20;3.03;;;2.20;;
38037;SDS011;23843;51.320;12.340;2023-08-12T12:11:51;4.57;;;2.10;;
38037;SDS011;23843;51.320;12.340;2023-08-12T12:14:18;2.22;;;2.03;;
38037;SDS011;23843;51.320;12.340;2023-08-12T12:16:44;2.20;;;1.73;;
38037;SDS011;23843;51.320;12.340;2023-08-12T12:19:14;2.75;;;2.50;;
38037;SDS011;23843;51.320;12.340;2023-08-12T12:21:41;3.85;;;2.42;;
38037;SDS011;23843;51.320;12.340;2023-08-12T12:24:07;3.67;;;2.05;;
38037;SDS011;23843;51.320;12.340;2023-08-12T12:26:33;2.00;;;1.80;;
38037;SDS011;23843;51.320;12.340;2023-08-12T12:28:59;1.70;;;1.60;;
38037;SDS011;23843;51.320;12.340;2023-08-12T12:31:25;2.13;;;1.38;;
38037;SDS011;23843;51.320;12.340;2023-08-12T12:33:51;2.33;;;1.63;;
38037;SDS011;23843;51.320;12.340;2023-08-12T12:36:16;1.73;;;1.63;;
38037;SDS011;23843;51.320;12.340;2023-08-12T12:38:42;1.30;;;1.20;;
38037;SDS011;23843;51.320;12.340;2023-08-12T12:41:08;1.00;;;1.00;;
38037;SDS011;23843;51.320;12.340;2023-08-12T12:43:33;1.40;;;1.30;;
38037;SDS011;23843;51.320;12.340;2023-08-12T12:46:00;1.13;;;1.08;;
38037;SDS011;23843;51.320;12.340;2023-08-12T12:48:26;1.48;;;1.38;;
38037;SDS011;23843;51.320;12.340;2023-08-12T12:50:51;0.80;;;0.80;;
38037;SDS011;23843;51.320;12.340;2023-08-12T12:53:17;1.30;;;1.20;;
38037;SDS011;23843;51.320;12.340;2023-08-12T12:55:42;1.00;;;0.90;;
38037;SDS011;23843;51.320;12.340;2023-08-12T12:58:08;1.50;;;1.40;;
38037;SDS011;23843;51.320;12.340;2023-08-12T13:00:33;1.60;;;1.50;;
38037;SDS011;23843;51.320;12.340;2023-08-12T13:03:00;1.20;;;1.10;;
38037;SDS011;23843;51.320;12.340;2023-08-12T13:05:26;0.80;;;0.80;;
38037;SDS011;23843;51.320;12.340;2023-08-12T13:07:51;1.70;;;1.60;;
38037;SDS011;23843;51.320;12.340;2023-08-12T13:10:17;1.13;;;1.02;;
38037;SDS011;23843;51.320;12.340;2023-08-12T13:12:42;1.45;;;0.93;;
38037;SDS011;23843;51.320;12.340;2023-08-12T13:15:08;2.13;;;1.30;;
38037;SDS011;23843;51.320;12.340;2023-08-12T13:17:34;1.30;;;1.20;;
38037;SDS011;23843;51.320;12.340;2023-08-12T13:20:01;1.10;;;1.10;;
38037;SDS011;23843;51.320;12.340;2023-08-12T13:22:26;1.65;;;1.38;;
38037;SDS011;23843;51.320;12.340;2023-08-12T13:24:52;1.40;;;1.30;;
38037;SDS011;23843;51.320;12.340;2023-08-12T13:27:17;1.52;;;1.30;;
38037;SDS011;23843;51.320;12.340;2023-08-12T13:29:43;1.20;;;1.10;;
38037;SDS011;23843;51.320;12.340;2023-08-12T13:32:08;1.42;;;1.30;;
38037;SDS011;23843;51.320;12.340;2023-08-12T13:34:34;1.27;;;1.17;;
38037;SDS011;23843;51.320;12.340;2023-08-12T13:37:01;1.42;;;1.30;;
38037;SDS011;23843;51.320;12.340;2023-08-12T13:39:26;2.05;;;1.95;;
38037;SDS011;23843;51.320;12.340;2023-08-12T13:41:52;1.50;;;1.40;;
38037;SDS011;23843;51.320;12.340;2023-08-12T13:44:18;1.60;;;1.50;;
38037;SDS011;23843;51.320;12.340;2023-08-12T13:46:43;1.13;;;1.05;;
38037;SDS011;23843;51.320;12.340;2023-08-12T13:49:09;1.05;;;1.05;;
38037;SDS011;23843;51.320;12.340;2023-08-12T13:51:34;1.40;;;1.30;;
38037;SDS011;23843;51.320;12.340;2023-08-12T13:54:01;1.13;;;1.02;;
38037;SDS011;23843;51.320;12.340;2023-08-12T13:56:27;0.88;;;0.88;;
38037;SDS011;23843;51.320;12.340;2023-08-12T13:58:53;1.10;;;1.00;;
38037;SDS011;23843;51.320;12.340;2023-08-12T14:01:18;1.20;;;1.10;;
38037;SDS011;23843;51.320;12.340;2023-08-12T14:03:44;1.33;;;1.20;;
38037;SDS011;23843;51.320;12.340;2023-08-12T14:06:09;1.20;;;1.10;;
38037;SDS011;23843;51.320;12.340;2023-08-12T14:08:35;1.45;;;1.08;;
38037;SDS011;23843;51.320;12.340;2023-08-12T14:11:01;0.70;;;0.70;;
38037;SDS011;23843;51.320;12.340;2023-08-12T14:13:27;1.20;;;1.10;;
38037;SDS011;23843;51.320;12.340;2023-08-12T14:15:52;1.55;;;1.45;;
38037;SDS011;23843;51.320;12.340;2023-08-12T14:18:18;0.93;;;0.93;;
38037;SDS011;23843;51.320;12.340;2023-08-12T14:20:44;0.85;;;0.85;;
38037;SDS011;23843;51.320;12.340;2023-08-12T14:23:09;1.00;;;1.00;;
38037;SDS011;23843;51.320;12.340;2023-08-12T14:25:35;0.60;;;0.60;;
38037;SDS011;23843;51.320;12.340;2023-08-12T14:28:02;0.95;;;0.85;;